Berwick, Illinois
Current Conditions -  °F | °C
As of 1:55 AM on Saturday 20 Dec 2014 (Local Time) from KGBG Reporting Station
Overcast Overcast  
Wind Chill: -2°   Ceiling: 4800
Heat Index: -2°   Visibility: 10mi
Dew Point: -4°   Wind: 3mph
Humidity: 86%   Direction: 170°S
Pressure: 30.26"   Gusts: NA
Location:  40.8°N, 90.54°W
Report Text: KGBG 200755Z AUTO 17003KT 10SM OVC048 M02/M04 A3026 RMK AO2 T10171038
Loading
Personal Weather Stations






























Interactive Weather Map New forecast layout! Learn more

10-Day Weather Forecast

Advertisements
Track Severe Weather on mobile